createdAt,value
2018-09-03T00:01:38.394Z,98142.59
2018-09-03T00:04:07.330Z,98143.05
2018-09-03T00:06:35.976Z,98144.91
2018-09-03T00:09:06.262Z,98148.78
2018-09-03T00:11:35.014Z,98157.34
2018-09-03T00:14:03.973Z,98157.20
2018-09-03T00:16:32.811Z,98155.84
2018-09-03T00:19:01.658Z,98155.13
2018-09-03T00:21:30.703Z,98163.45
2018-09-03T00:23:59.405Z,98165.60
2018-09-03T00:26:28.146Z,98151.90
2018-09-03T00:28:56.863Z,98145.09
2018-09-03T00:31:30.871Z,98134.40
2018-09-03T00:34:04.794Z,98128.50
2018-09-03T00:36:38.835Z,98118.75
2018-09-03T00:39:13.751Z,98114.28
2018-09-03T00:41:47.795Z,98120.05
2018-09-03T00:44:21.945Z,98113.92
2018-09-03T00:46:59.338Z,98117.66
2018-09-03T00:49:28.331Z,98113.69
2018-09-03T00:51:56.973Z,98109.17
2018-09-03T00:54:25.630Z,98110.99
2018-09-03T00:56:54.408Z,98103.06
2018-09-03T00:59:23.186Z,98103.06
2018-09-03T01:01:51.926Z,98102.19
2018-09-03T01:04:20.831Z,98106.97
2018-09-03T01:06:49.529Z,98105.38
2018-09-03T01:09:18.546Z,98111.27
2018-09-03T01:11:47.286Z,98113.15
2018-09-03T01:14:16.015Z,98108.71
2018-09-03T01:16:44.683Z,98107.42
2018-09-03T01:19:13.371Z,98105.66
2018-09-03T01:21:42.174Z,98101.47
2018-09-03T01:24:10.839Z,98102.08
2018-09-03T01:26:39.751Z,98087.45
2018-09-03T01:29:08.410Z,98086.61
2018-09-03T01:31:37.338Z,98077.82
2018-09-03T01:34:06.103Z,98091.29
2018-09-03T01:36:34.750Z,98103.22
2018-09-03T01:39:03.613Z,98104.63
2018-09-03T01:41:32.282Z,98104.06
2018-09-03T01:44:01.080Z,98095.19
2018-09-03T01:46:29.741Z,98102.94
2018-09-03T01:49:01.473Z,98104.63
2018-09-03T01:51:30.418Z,98091.81
2018-09-03T01:53:59.152Z,98103.05
2018-09-03T01:56:27.787Z,98102.97
2018-09-03T01:58:56.666Z,98100.54
2018-09-03T02:01:25.317Z,98099.48
2018-09-03T02:03:54.110Z,98097.55
2018-09-03T02:06:22.794Z,98099.41
2018-09-03T02:08:51.490Z,98085.65
2018-09-03T02:11:20.243Z,98086.66
2018-09-03T02:13:49.021Z,98086.56
2018-09-03T02:16:17.709Z,98088.77
2018-09-03T02:18:46.525Z,98082.20
2018-09-03T02:21:15.288Z,98079.02
2018-09-03T02:23:44.150Z,98083.33
2018-09-03T02:26:12.864Z,98082.36
2018-09-03T02:28:41.605Z,98082.81
2018-09-03T02:31:10.301Z,98078.79
2018-09-03T02:33:39.613Z,98085.72
2018-09-03T02:36:08.318Z,98082.15
2018-09-03T02:38:37.046Z,98078.34
2018-09-03T02:41:06.061Z,98077.04
2018-09-03T02:43:35.171Z,98071.54
2018-09-03T02:46:03.827Z,98070.91
2018-09-03T02:48:32.489Z,98063.89
2018-09-03T02:51:01.230Z,98068.70
2018-09-03T02:53:30.090Z,98065.75
2018-09-03T02:55:58.787Z,98066.27
2018-09-03T02:58:27.509Z,98061.80
2018-09-03T03:00:56.274Z,98054.30
2018-09-03T03:03:24.981Z,98040.20
2018-09-03T03:05:53.980Z,98036.09
2018-09-03T03:08:22.735Z,98027.61
2018-09-03T03:10:51.526Z,98015.19
2018-09-03T03:13:20.311Z,98013.06
2018-09-03T03:15:48.945Z,98005.30
2018-09-03T03:18:17.785Z,97992.56
2018-09-03T03:20:46.458Z,97995.73
2018-09-03T03:23:15.166Z,98004.93
2018-09-03T03:25:43.875Z,98004.11
2018-09-03T03:28:12.513Z,98010.19
2018-09-03T03:30:41.201Z,98011.87
2018-09-03T03:33:09.936Z,98014.59
2018-09-03T03:35:38.779Z,98008.48
2018-09-03T03:38:07.469Z,98005.97
2018-09-03T03:40:36.101Z,98006.44
2018-09-03T03:43:04.853Z,97999.08
2018-09-03T03:45:33.674Z,98001.84
2018-09-03T03:48:02.355Z,98003.82
2018-09-03T03:50:31.197Z,98007.39
2018-09-03T03:52:59.913Z,98003.61
2018-09-03T03:55:28.665Z,97998.90
2018-09-03T03:57:57.533Z,97997.54
2018-09-03T04:00:26.266Z,97998.33
2018-09-03T04:02:55.099Z,97994.59
2018-09-03T04:05:23.752Z,97993.48
2018-09-03T04:07:52.469Z,97993.92
2018-09-03T04:10:21.458Z,97982.95
2018-09-03T04:12:54.129Z,97984.38
2018-09-03T04:15:23.891Z,97982.91
2018-09-03T04:17:52.601Z,97981.55
2018-09-03T04:20:21.274Z,97973.66
2018-09-03T04:22:50.051Z,97972.14
2018-09-03T04:25:18.800Z,97975.77
2018-09-03T04:27:47.542Z,97969.44
2018-09-03T04:30:16.370Z,97979.08
2018-09-03T04:32:45.034Z,97974.88
2018-09-03T04:35:13.995Z,97977.55
2018-09-03T04:37:42.756Z,97982.95
2018-09-03T04:40:11.545Z,97975.46
2018-09-03T04:42:40.254Z,97974.61
2018-09-03T04:45:09.030Z,97976.91
2018-09-03T04:47:37.902Z,97979.19
2018-09-03T04:50:06.727Z,97980.23
2018-09-03T04:52:35.433Z,97987.75
2018-09-03T04:55:04.315Z,97984.31
2018-09-03T04:57:33.014Z,97980.23
2018-09-03T05:00:01.870Z,97977.33
2018-09-03T05:02:30.602Z,97980.33
2018-09-03T05:04:59.291Z,97984.92
2018-09-03T05:07:27.977Z,97986.84
2018-09-03T05:09:56.673Z,97999.77
2018-09-03T05:12:25.587Z,97997.94
2018-09-03T05:14:54.227Z,98003.67
2018-09-03T05:17:23.038Z,98005.88
2018-09-03T05:19:51.697Z,98013.63
2018-09-03T05:22:20.469Z,98015.91
2018-09-03T05:24:49.639Z,98007.52
2018-09-03T05:27:18.565Z,98014.15
2018-09-03T05:29:47.550Z,98020.38
2018-09-03T05:32:16.237Z,98017.77
2018-09-03T05:34:45.274Z,98014.36
2018-09-03T05:37:14.054Z,98012.74
2018-09-03T05:39:42.968Z,98013.23
2018-09-03T05:42:11.625Z,98012.14
2018-09-03T05:44:40.571Z,98001.48
2018-09-03T05:47:09.313Z,98007.23
2018-09-03T05:49:37.961Z,98010.06
2018-09-03T05:52:06.737Z,98005.37
2018-09-03T05:54:35.494Z,98007.83
2018-09-03T05:57:04.421Z,98007.38
2018-09-03T05:59:33.102Z,98011.16
2018-09-03T06:02:01.857Z,98009.38
2018-09-03T06:04:30.805Z,98011.42
2018-09-03T06:06:59.504Z,98015.27
2018-09-03T06:09:28.972Z,98007.34
2018-09-03T06:11:57.817Z,98000.44
2018-09-03T06:14:26.545Z,97999.79
2018-09-03T06:16:55.331Z,98002.03
2018-09-03T06:19:24.089Z,98002.06
2018-09-03T06:21:52.754Z,98003.33
2018-09-03T06:24:21.572Z,98005.29
2018-09-03T06:26:50.222Z,98025.14
2018-09-03T06:29:19.138Z,98010.53
2018-09-03T06:31:47.846Z,98005.92
2018-09-03T06:34:16.537Z,97999.67
2018-09-03T06:36:45.205Z,97995.25
2018-09-03T06:39:13.928Z,97990.63
2018-09-03T06:41:42.597Z,97983.05
2018-09-03T06:44:11.225Z,97978.95
2018-09-03T06:46:39.980Z,97981.73
2018-09-03T06:49:08.751Z,97973.77
2018-09-03T06:51:37.383Z,97978.56
2018-09-03T06:54:06.253Z,97980.83
2018-09-03T06:56:34.996Z,97971.08
2018-09-03T06:59:03.730Z,97964.72
2018-09-03T07:01:32.579Z,97957.47
2018-09-03T07:04:01.319Z,97959.27
2018-09-03T07:06:30.078Z,97955.98
2018-09-03T07:08:59.383Z,97958.37
2018-09-03T07:11:28.274Z,97949.98
2018-09-03T07:13:57.025Z,97948.47
2018-09-03T07:16:25.756Z,97946.34
2018-09-03T07:18:54.525Z,97953.39
2018-09-03T07:21:23.246Z,97957.79
2018-09-03T07:23:52.213Z,97948.47
2018-09-03T07:26:21.421Z,97939.64
2018-09-03T07:28:50.326Z,97936.23
2018-09-03T07:31:19.459Z,97935.20
2018-09-03T07:33:48.196Z,97939.20
2018-09-03T07:36:16.969Z,97943.85
2018-09-03T07:38:45.829Z,97950.62
2018-09-03T07:41:14.532Z,97952.93
2018-09-03T07:43:43.247Z,97945.88
2018-09-03T07:46:11.890Z,97948.95
2018-09-03T07:48:40.933Z,97954.63
2018-09-03T07:51:09.727Z,97964.05
2018-09-03T07:53:38.369Z,97958.86
2018-09-03T07:56:07.174Z,97957.49
2018-09-03T07:58:35.845Z,97957.46
2018-09-03T08:01:04.940Z,97959.78
2018-09-03T08:03:33.522Z,97959.30
2018-09-03T08:06:02.503Z,97958.15
2018-09-03T08:08:31.423Z,97958.60
2018-09-03T08:11:00.086Z,97958.16
2018-09-03T08:13:34.445Z,97962.25
2018-09-03T08:16:03.183Z,97959.08
2018-09-03T08:18:31.913Z,97960.22
2018-09-03T08:21:00.993Z,97954.50
2018-09-03T08:23:29.773Z,97958.19
2018-09-03T08:25:58.797Z,97956.25
2018-09-03T08:28:27.593Z,97953.53
2018-09-03T08:30:56.416Z,97953.63
2018-09-03T08:33:25.297Z,97952.73
2018-09-03T08:35:54.130Z,97940.34
2018-09-03T08:38:23.169Z,97946.11
2018-09-03T08:40:51.841Z,97941.53
2018-09-03T08:43:20.611Z,97935.48
2018-09-03T08:45:49.349Z,97936.92
2018-09-03T08:48:18.077Z,97942.77
2018-09-03T08:50:46.789Z,97942.73
2018-09-03T08:53:15.567Z,97940.04
2018-09-03T08:55:44.218Z,97937.08
2018-09-03T08:58:13.074Z,97935.22
2018-09-03T09:00:41.822Z,97932.72
2018-09-03T09:03:15.603Z,97927.03
2018-09-03T09:05:44.448Z,97925.89
2018-09-03T09:08:13.100Z,97926.33
2018-09-03T09:10:42.290Z,97934.08
2018-09-03T09:13:11.239Z,97925.99
2018-09-03T09:15:40.217Z,97923.27
2018-09-03T09:18:11.789Z,97916.52
2018-09-03T09:20:40.457Z,97918.11
2018-09-03T09:23:09.290Z,97917.25
2018-09-03T09:25:38.003Z,97915.23
2018-09-03T09:28:06.835Z,97915.71
2018-09-03T09:30:35.634Z,97910.72
2018-09-03T09:33:04.607Z,97910.95
2018-09-03T09:35:33.566Z,97910.47
2018-09-03T09:38:02.330Z,97916.12
2018-09-03T09:40:31.186Z,97912.63
2018-09-03T09:43:00.015Z,97915.98
2018-09-03T09:45:29.411Z,97909.20
2018-09-03T09:47:58.238Z,97917.47
2018-09-03T09:50:26.923Z,97914.73
2018-09-03T09:52:55.714Z,97911.09
2018-09-03T09:55:24.531Z,97909.61
2018-09-03T09:57:53.314Z,97912.40
2018-09-03T10:00:27.145Z,97911.69
2018-09-03T10:02:56.123Z,97900.35
2018-09-03T10:05:24.973Z,97907.38
2018-09-03T10:07:53.645Z,97906.84
2018-09-03T10:10:22.470Z,97907.92
2018-09-03T10:12:51.279Z,97914.86
2018-09-03T10:15:20.110Z,97912.36
2018-09-03T10:17:48.918Z,97915.08
2018-09-03T10:20:17.700Z,97915.64
2018-09-03T10:22:46.401Z,97919.05
2018-09-03T10:25:15.166Z,97912.89
2018-09-03T10:27:44.104Z,97912.71
2018-09-03T10:30:12.877Z,97910.73
2018-09-03T10:32:41.725Z,97908.89
2018-09-03T10:35:10.782Z,97905.87
2018-09-03T10:37:39.626Z,97909.16
2018-09-03T10:40:08.354Z,97903.30
2018-09-03T10:42:37.122Z,97905.09
2018-09-03T10:45:05.969Z,97912.07
2018-09-03T10:47:34.919Z,97910.56
2018-09-03T10:50:03.661Z,97913.61
2018-09-03T10:52:32.626Z,97912.42
2018-09-03T10:55:01.506Z,97911.81
2018-09-03T10:57:30.146Z,97911.45
2018-09-03T10:59:58.938Z,97907.88
2018-09-03T11:02:27.733Z,97908.18
2018-09-03T11:04:56.619Z,97905.20
2018-09-03T11:07:25.867Z,97905.20
2018-09-03T11:09:54.637Z,97899.30
2018-09-03T11:12:23.744Z,97903.25
2018-09-03T11:14:52.498Z,97903.29
2018-09-03T11:17:21.298Z,97897.22
2018-09-03T11:20:07.351Z,97900.59
2018-09-03T11:22:35.973Z,97901.75
2018-09-03T11:25:05.189Z,97911.20
2018-09-03T11:27:34.089Z,97905.02
2018-09-03T11:30:03.014Z,97907.93
2018-09-03T11:32:31.872Z,97907.09
2018-09-03T11:35:00.628Z,97908.18
2018-09-03T11:37:29.542Z,97907.96
2018-09-03T11:39:58.309Z,97905.66
2018-09-03T11:42:27.541Z,97901.30
2018-09-03T11:44:56.310Z,97904.39
2018-09-03T11:47:25.254Z,97897.95
2018-09-03T11:49:54.069Z,97899.98
2018-09-03T11:52:22.792Z,97901.49
2018-09-03T11:54:51.491Z,97904.01
2018-09-03T11:57:20.251Z,97908.86
2018-09-03T11:59:49.041Z,97903.17
2018-09-03T12:02:17.732Z,97902.61
2018-09-03T12:04:48.233Z,97906.20
2018-09-03T12:07:17.066Z,97898.83
2018-09-03T12:09:45.716Z,97895.45
2018-09-03T12:12:14.401Z,97897.86
2018-09-03T12:14:45.463Z,97898.59
2018-09-03T12:17:14.373Z,97904.45
2018-09-03T12:19:43.258Z,97905.77
2018-09-03T12:22:12.088Z,97904.61
2018-09-03T12:24:40.819Z,97904.77
2018-09-03T12:27:09.674Z,97907.08
2018-09-03T12:29:38.459Z,97899.30
2018-09-03T12:32:07.593Z,97905.70
2018-09-03T12:34:36.295Z,97900.25
2018-09-03T12:37:06.006Z,97897.39
2018-09-03T12:39:35.152Z,97894.45
2018-09-03T12:42:03.873Z,97896.03
2018-09-03T12:44:32.689Z,97890.70
2018-09-03T12:47:01.890Z,97888.11
2018-09-03T12:49:30.611Z,97890.86
2018-09-03T12:51:59.890Z,97887.54
2018-09-03T12:54:28.962Z,97884.95
2018-09-03T12:56:57.813Z,97883.48
2018-09-03T12:59:26.478Z,97880.77
2018-09-03T13:01:55.240Z,97881.83
2018-09-03T13:04:24.144Z,97882.41
2018-09-03T13:06:52.897Z,97875.88
2018-09-03T13:09:21.906Z,97877.78
2018-09-03T13:11:50.772Z,97889.45
2018-09-03T13:14:19.578Z,97892.27
2018-09-03T13:16:48.692Z,97893.91
2018-09-03T13:19:17.520Z,97898.01
2018-09-03T13:24:14.093Z,97887.95
2018-09-03T13:26:43.003Z,97883.14
2018-09-03T13:29:12.024Z,97870.23
2018-09-03T13:31:40.925Z,97871.05
2018-09-03T13:34:09.679Z,97863.00
2018-09-03T13:36:38.367Z,97871.17
2018-09-03T13:39:09.102Z,97874.33
2018-09-03T13:44:05.794Z,97876.53
2018-09-03T13:46:34.861Z,97870.97
2018-09-03T13:49:03.639Z,97876.33
2018-09-03T13:51:32.361Z,97870.09
2018-09-03T13:54:01.361Z,97864.70
2018-09-03T13:56:30.186Z,97861.80
2018-09-03T13:58:58.957Z,97861.90
2018-09-03T14:01:27.806Z,97851.37
2018-09-03T14:03:56.466Z,97846.00
2018-09-03T14:06:25.375Z,97852.95
2018-09-03T14:08:54.059Z,97853.97
2018-09-03T14:11:22.899Z,97844.77
2018-09-03T14:13:51.598Z,97853.23
2018-09-03T14:16:20.410Z,97851.68
2018-09-03T14:18:49.259Z,97845.46
2018-09-03T14:21:18.261Z,97840.27
2018-09-03T14:23:46.992Z,97838.76
2018-09-03T14:26:15.686Z,97843.63
2018-09-03T14:28:44.562Z,97839.31
2018-09-03T14:31:13.275Z,97834.35
2018-09-03T14:33:42.036Z,97838.16
2018-09-03T14:36:10.865Z,97831.41
2018-09-03T14:38:39.673Z,97841.31
2018-09-03T14:41:08.335Z,97840.12
2018-09-03T14:43:37.073Z,97840.81
2018-09-03T14:46:06.077Z,97837.66
2018-09-03T14:48:34.850Z,97832.30
2018-09-03T14:51:03.605Z,97830.08
2018-09-03T14:53:32.446Z,97832.28
2018-09-03T14:56:01.134Z,97835.87
2018-09-03T14:58:29.995Z,97837.25
2018-09-03T15:00:58.724Z,97836.31
2018-09-03T15:03:27.387Z,97839.20
2018-09-03T15:05:56.024Z,97837.07
2018-09-03T15:08:25.047Z,97834.83
2018-09-03T15:10:53.695Z,97832.17
2018-09-03T15:13:22.356Z,97833.52
2018-09-03T15:15:51.140Z,97834.80
2018-09-03T15:18:19.905Z,97831.06
2018-09-03T15:20:48.845Z,97834.70
2018-09-03T15:23:17.493Z,97836.16
2018-09-03T15:25:46.177Z,97838.80
2018-09-03T15:28:14.903Z,97839.22
2018-09-03T15:30:43.611Z,97838.06
2018-09-03T15:33:12.362Z,97836.56
2018-09-03T15:35:41.364Z,97831.55
2018-09-03T15:38:10.122Z,97832.33
2018-09-03T15:40:38.930Z,97830.48
2018-09-03T15:43:07.599Z,97826.36
2018-09-03T15:45:36.405Z,97823.93
2018-09-03T15:48:05.260Z,97825.78
2018-09-03T15:50:34.080Z,97826.05
2018-09-03T15:53:03.002Z,97825.12
2018-09-03T15:55:31.897Z,97826.16
2018-09-03T15:58:00.739Z,97836.67
2018-09-03T16:00:29.641Z,97833.94
2018-09-03T16:02:58.483Z,97830.49
2018-09-03T16:05:27.273Z,97833.36
2018-09-03T16:07:55.986Z,97833.80
2018-09-03T16:10:24.930Z,97831.67
2018-09-03T16:12:53.594Z,97827.66
2018-09-03T16:15:22.385Z,97831.58
2018-09-03T16:17:51.252Z,97828.05
2018-09-03T16:20:19.912Z,97826.87
2018-09-03T16:22:48.878Z,97829.98
2018-09-03T16:25:17.853Z,97834.50
2018-09-03T16:27:46.698Z,97834.94
2018-09-03T16:30:15.451Z,97835.27
2018-09-03T16:32:44.096Z,97835.06
2018-09-03T16:35:12.929Z,97831.43
2018-09-03T16:37:41.741Z,97835.14
2018-09-03T16:40:11.082Z,97828.52
2018-09-03T16:42:39.951Z,97821.97
2018-09-03T16:45:08.698Z,97828.34
2018-09-03T16:47:37.570Z,97826.91
2018-09-03T16:50:06.569Z,97825.19
2018-09-03T16:52:35.348Z,97822.08
2018-09-03T16:55:04.078Z,97829.59
2018-09-03T16:57:32.773Z,97835.13
2018-09-03T17:00:01.632Z,97833.95
2018-09-03T17:02:30.463Z,97832.91
2018-09-03T17:04:59.233Z,97835.25
2018-09-03T17:07:28.053Z,97831.30
2018-09-03T17:09:56.736Z,97837.02
2018-09-03T17:12:25.978Z,97832.39
2018-09-03T17:14:54.842Z,97843.36
2018-09-03T17:17:24.192Z,97834.98
2018-09-03T17:19:53.265Z,97836.71
2018-09-03T17:22:21.913Z,97841.50
2018-09-03T17:24:50.655Z,97844.37
2018-09-03T17:27:19.505Z,97848.48
2018-09-03T17:29:48.265Z,97848.55
2018-09-03T17:32:17.006Z,97850.30
2018-09-03T17:34:45.673Z,97850.50
2018-09-03T17:37:14.692Z,97852.75
2018-09-03T17:39:43.381Z,97855.83
2018-09-03T17:42:12.134Z,97857.86
2018-09-03T17:44:41.067Z,97859.78
2018-09-03T17:47:09.794Z,97857.93
2018-09-03T17:49:38.753Z,97863.09
2018-09-03T17:52:07.516Z,97868.81
2018-09-03T17:54:36.277Z,97876.87
2018-09-03T17:57:05.112Z,97874.45
2018-09-03T17:59:33.915Z,97882.44
2018-09-03T18:02:03.035Z,97877.18
2018-09-03T18:04:31.733Z,97884.81
2018-09-03T18:07:00.435Z,97879.34
2018-09-03T18:09:29.230Z,97875.88
2018-09-03T18:11:58.007Z,97885.59
2018-09-03T18:14:26.802Z,97879.75
2018-09-03T18:16:55.482Z,97875.19
2018-09-03T18:19:24.386Z,97880.11
2018-09-03T18:21:53.374Z,97879.00
2018-09-03T18:24:22.201Z,97880.84
2018-09-03T18:26:51.096Z,97883.30
2018-09-03T18:29:19.855Z,97884.20
2018-09-03T18:31:48.679Z,97887.73
2018-09-03T18:34:17.393Z,97891.67
2018-09-03T18:36:46.090Z,97886.78
2018-09-03T18:39:15.106Z,97886.21
2018-09-03T18:41:43.801Z,97886.86
2018-09-03T18:44:12.478Z,97886.38
2018-09-03T18:46:41.607Z,97891.34
2018-09-03T18:49:10.283Z,97879.27
2018-09-03T18:51:39.062Z,97891.56
2018-09-03T18:54:07.437Z,97891.34
2018-09-03T18:56:36.104Z,97895.95
2018-09-03T18:59:05.235Z,97894.44
2018-09-03T19:01:34.007Z,97898.40
2018-09-03T19:04:02.818Z,97901.30
2018-09-03T19:06:31.689Z,97903.97
2018-09-03T19:09:00.669Z,97901.34
2018-09-03T19:11:29.745Z,97904.48
2018-09-03T19:13:58.613Z,97899.11
2018-09-03T19:16:27.354Z,97897.36
2018-09-03T19:18:56.312Z,97903.44
2018-09-03T19:21:25.009Z,97907.21
2018-09-03T19:23:53.874Z,97900.73
2018-09-03T19:26:22.822Z,97911.92
2018-09-03T19:28:51.540Z,97903.25
2018-09-03T19:31:20.215Z,97902.36
2018-09-03T19:33:49.130Z,97905.16
2018-09-03T19:36:17.949Z,97908.55
2018-09-03T19:38:46.701Z,97909.73
2018-09-03T19:41:15.489Z,97906.02
2018-09-03T19:43:44.174Z,97902.99
2018-09-03T19:46:12.831Z,97899.36
2018-09-03T19:48:41.868Z,97904.83
2018-09-03T19:51:10.588Z,97897.61
2018-09-03T19:53:39.275Z,97893.08
2018-09-03T19:56:08.009Z,97891.14
2018-09-03T19:58:36.770Z,97891.20
2018-09-03T20:01:05.991Z,97889.40
2018-09-03T20:03:34.849Z,97889.86
2018-09-03T20:06:03.733Z,97889.43
2018-09-03T20:08:33.502Z,97891.23
2018-09-03T20:11:02.369Z,97895.25
2018-09-03T20:13:31.681Z,97887.88
2018-09-03T20:16:00.432Z,97895.65
2018-09-03T20:18:29.165Z,97894.78
2018-09-03T20:20:58.137Z,97889.53
2018-09-03T20:23:26.888Z,97889.27
2018-09-03T20:25:55.924Z,97891.36
2018-09-03T20:28:24.710Z,97886.20
2018-09-03T20:30:53.363Z,97895.03
2018-09-03T20:33:22.230Z,97898.84
2018-09-03T20:35:51.158Z,97901.33
2018-09-03T20:38:20.182Z,97903.20
2018-09-03T20:40:48.977Z,97902.36
2018-09-03T20:43:17.632Z,97902.06
2018-09-03T20:45:46.366Z,97904.77
2018-09-03T20:48:15.107Z,97892.97
2018-09-03T20:50:43.924Z,97892.78
2018-09-03T20:53:12.695Z,97894.34
2018-09-03T20:55:41.473Z,97890.27
2018-09-03T20:58:10.592Z,97891.88
2018-09-03T21:00:39.342Z,97899.92
2018-09-03T21:03:08.030Z,97892.27
2018-09-03T21:05:36.792Z,97882.93
2018-09-03T21:08:05.728Z,97890.27
2018-09-03T21:10:34.529Z,97888.02
2018-09-03T21:13:03.598Z,97885.70
2018-09-03T21:15:32.257Z,97883.46
2018-09-03T21:18:00.976Z,97880.87
2018-09-03T21:20:29.754Z,97888.02
2018-09-03T21:22:58.450Z,97878.14
2018-09-03T21:25:27.162Z,97877.16
2018-09-03T21:27:55.829Z,97873.53
2018-09-03T21:30:24.842Z,97873.32
2018-09-03T21:32:53.494Z,97880.03
2018-09-03T21:35:22.366Z,97887.58
2018-09-03T21:37:51.178Z,97886.23
2018-09-03T21:40:20.161Z,97889.64
2018-09-03T21:42:49.094Z,97888.94
2018-09-03T21:45:17.863Z,97890.22
2018-09-03T21:47:46.537Z,97888.63
2018-09-03T21:50:15.195Z,97890.69
2018-09-03T21:52:43.941Z,97891.05
2018-09-03T21:55:12.937Z,97884.37
2018-09-03T21:57:41.830Z,97879.25
2018-09-03T22:00:11.204Z,97879.92
2018-09-03T22:02:40.032Z,97877.31
2018-09-03T22:05:08.849Z,97883.06
2018-09-03T22:07:37.547Z,97886.36
2018-09-03T22:10:06.362Z,97886.49
2018-09-03T22:12:35.181Z,97888.31
2018-09-03T22:15:03.994Z,97879.98
2018-09-03T22:17:32.730Z,97883.55
2018-09-03T22:20:01.750Z,97884.91
2018-09-03T22:22:30.514Z,97885.29
2018-09-03T22:24:59.389Z,97886.52
2018-09-03T22:27:28.415Z,97880.56
2018-09-03T22:29:57.298Z,97884.20
2018-09-03T22:32:26.410Z,97883.65
2018-09-03T22:34:55.160Z,97882.84
2018-09-03T22:37:23.838Z,97875.36
2018-09-03T22:39:52.575Z,97872.84
2018-09-03T22:42:24.978Z,97874.45
2018-09-03T22:44:54.146Z,97877.20
2018-09-03T22:47:23.035Z,97886.29
2018-09-03T22:49:51.817Z,97878.45
2018-09-03T22:52:20.844Z,97876.97
2018-09-03T22:54:49.731Z,97882.55
2018-09-03T22:57:18.879Z,97870.64
2018-09-03T22:59:47.784Z,97873.57
2018-09-03T23:02:16.479Z,97874.45
2018-09-03T23:04:45.283Z,97874.47
2018-09-03T23:07:13.939Z,97880.98
2018-09-03T23:09:42.878Z,97877.82
2018-09-03T23:12:11.609Z,97876.55
2018-09-03T23:14:40.291Z,97874.03
2018-09-03T23:17:09.005Z,97869.92
2018-09-03T23:19:37.661Z,97869.89
2018-09-03T23:22:06.801Z,97867.06
2018-09-03T23:24:35.493Z,97863.63
2018-09-03T23:27:04.267Z,97866.70
2018-09-03T23:29:33.041Z,97856.80
2018-09-03T23:32:01.703Z,97856.67
2018-09-03T23:34:30.534Z,97859.59
2018-09-03T23:36:59.451Z,97858.58
2018-09-03T23:39:28.178Z,97848.45
2018-09-03T23:41:57.105Z,97852.06
2018-09-03T23:44:25.821Z,97851.02
2018-09-03T23:46:54.593Z,97855.66
2018-09-03T23:49:23.326Z,97853.06
2018-09-03T23:51:52.026Z,97853.63
2018-09-03T23:54:20.753Z,97850.66
2018-09-03T23:56:49.481Z,97851.66
2018-09-03T23:59:18.186Z,97844.16
